Calumet, Louisiana
Current Conditions -  °F | °C
As of 6:55 PM on Friday 19 Dec 2014 (Local Time) from KPTN Reporting Station
Broken Clouds Broken Clouds  
Wind Chill: 52°   Ceiling: 2500
Heat Index: 52°   Visibility: 5mi
Dew Point: 48°   Wind: 12mph
Humidity: 88%   Direction: 40°NE
Pressure: 30.06"   Gusts: NA
Location:  29.6955°N, 91.3176°W
Report Text: KPTN 200055Z AUTO 04010KT 5SM FEW006 SCT016 BKN025 11/09 A3006 RMK AO1
Loading
Personal Weather Stations






























Interactive Weather Map New forecast layout! Learn more

10-Day Weather Forecast

Advertisements
Track Severe Weather on mobile